This is the latest recevied weather packets stored in our database for station/object VE6CWS-7. If no packets are shown the sender has not sent any weather packets the latest 10 day(s).
| Time | Temp. | Humidity | Pressure | Rain* | Wind** | Luminosity | Snow |
|---|---|---|---|---|---|---|---|
| 1777619753 | 6.11° C | 67% | 1014.5 hPa | 0 mm | - | - | - |
| 1777618911 | 6.67° C | 65% | 1014.5 hPa | 0 mm | - | - | - |
| 1777617957 | 7.78° C | 61% | 1014.5 hPa | 0 mm | - | - | - |
| 1777617053 | 8.33° C | 60% | 1014.5 hPa | 0 mm | - | - | - |
| 1777616178 | 8.33° C | 59% | 1014.7 hPa | 0 mm | - | - | - |
| 1777615305 | 8.33° C | 59% | 1014.8 hPa | 0 mm | - | - | - |
| 1777614342 | 8.89° C | 59% | 1014.8 hPa | 0 mm | - | - | - |
| 1777613443 | 8.89° C | 58% | 1015 hPa | 0 mm | - | - | - |
| 1777612540 | 9.44° C | 58% | 1015 hPa | 0 mm | - | - | - |
| 1777611700 | 9.44° C | 59% | 1015.1 hPa | 0 mm | - | - | - |
| 1777610736 | 10.56° C | 57% | 1015.1 hPa | 0 mm | - | - | - |
| 1777609837 | 11.67° C | 52% | 1015.1 hPa | 0 mm | - | - | - |
| 1777608937 | 11.67° C | 53% | 1015.2 hPa | 0 mm | - | - | - |
| 1777608101 | 11.11° C | 55% | 1015.3 hPa | 0 mm | - | - | - |
| 1777607150 | 12.78° C | 48% | 1015.2 hPa | 0 mm | - | - | - |
| 1777606251 | 12.78° C | 48% | 1015.1 hPa | 0 mm | - | - | - |
| 1777605352 | 13.89° C | 45% | 1015 hPa | 0 mm | - | - | - |
| 1777604508 | 14.44° C | 43% | 1014.8 hPa | 0 mm | - | - | - |
| 1777603550 | 15.56° C | 41% | 1014.9 hPa | 0 mm | - | - | - |
| 1777602645 | 16.67° C | 39% | 1015.1 hPa | 0 mm | - | - | - |
| 1777601753 | 17.78° C | 31% | 1015.3 hPa | 0 mm | - | - | - |
| 1777600903 | 18.89° C | 25% | 1015.4 hPa | 0 mm | - | - | - |
| 1777599942 | 19.44° C | 24% | 1015.4 hPa | 0 mm | - | - | - |
| 1777599037 | 20° C | 25% | 1015.5 hPa | 0 mm | - | - | - |
| 1777598141 | 21.11° C | 22% | 1015.5 hPa | 0 mm | - | - | - |
* Rain latest hour (hover to see other rain measurements)
** Current wind speed in m/s (hover to see current wind gust speed)